Latest Weather Observations for Condobolin Airport

IDN60801

Issued at 11:05 pm EDT Saturday 1 November 2014 (issued every 30 minutes, with the page automatically refreshed every 10 minutes)

About weather observations | Map of weather stations | Latest weather observations for NSW | Other Formats
Station Details ID: 050137 Name: CONDOBOLIN AIRPORT AWS Lat: -33.07 Lon: 147.21 Height: 192.6 m
Data from the previous 72 hours. | See also: Recent months at Condobolin Airport
Date/Time
EDT
Temp
°C
App
Temp
°C
Dew
Point
Rel
Hum
%
Delta-T
°C
Wind Press
QNH
hPa
Press
MSL
hPa
Rain
since 9 am
mm
Dir
 
Spd
km/h
Gust
km/h
Spd
kts
Gust
kts
01/11:00pm 15.9 9.0 -2.6 28 7.5 SW 24 35 13 19 1016.6 1015.9 0.0
01/10:30pm 16.6 9.0 -2.0 28 7.7 SW 28 37 15 20 1016.2 1015.5 0.0
01/10:00pm 16.8 10.1 -1.3 29 7.6 SW 24 33 13 18 1015.6 1014.9 0.0
01/09:30pm 17.7 10.3 -1.0 28 8.0 SW 28 35 15 19 1015.2 1014.5 0.0
01/09:00pm 17.9 10.9 -0.4 29 7.9 SW 26 33 14 18 1014.4 1013.7 0.0
01/08:30pm 18.7 12.1 -0.2 28 8.3 SW 24 35 13 19 1013.4 1012.7 0.0
01/08:00pm 19.2 12.9 -0.7 26 8.7 SW 22 30 12 16 1012.7 1012.0 0.0
01/07:30pm 20.0 11.6 -1.2 24 9.2 SW 33 48 18 26 1011.9 1011.2 0.0
01/07:00pm 21.2 12.0 1.5 27 9.2 SW 39 50 21 27 1011.1 1010.4 0.0
01/06:30pm 22.3 13.4 2.9 28 9.3 WSW 39 59 21 32 1010.2 1009.5 0.0
01/06:19pm 22.6 14.5 3.2 28 9.4 WSW 35 54 19 29 1009.9 1009.2 0.0
01/06:00pm 23.3 14.7 4.8 30 9.3 WSW 39 56 21 30 1009.5 1008.8 0.0
01/05:30pm 22.7 15.2 6.5 35 8.4 WSW 35 50 19 27 1009.2 1008.4 0.0
01/05:00pm 24.0 16.4 7.6 35 8.7 WSW 37 52 20 28 1008.8 1008.0 0.0
01/04:30pm 23.3 16.4 9.0 40 7.7 SW 35 48 19 26 1008.7 1007.9 0.0
01/04:00pm 23.1 15.8 10.2 44 7.1 WSW 39 48 21 26 1008.5 1007.8 0.0
01/03:30pm 22.7 15.0 10.2 45 6.9 WSW 41 54 22 29 1008.7 1007.9 0.0
01/03:00pm 24.0 16.2 11.0 44 7.3 WSW 43 56 23 30 1008.3 1007.6 0.0
01/02:30pm 23.9 15.7 11.6 46 7.0 WSW 46 61 25 33 1007.9 1007.2 0.0
01/02:06pm 25.3 17.4 11.5 42 7.9 WSW 44 65 24 35 1007.7 1007.0 0.0
01/02:00pm 25.3 17.1 11.8 43 7.8 WSW 46 59 25 32 1007.4 1006.7 0.0
01/01:39pm 26.8 19.2 11.7 39 8.7 WSW 43 61 23 33 1007.1 1006.4 0.0
01/01:30pm 26.8 19.0 11.3 38 8.9 WSW 43 52 23 28 1006.9 1006.2 0.0
01/01:14pm 27.7 21.7 10.0 33 10.0 WSW 32 50 17 27 1006.4 1005.7 0.0
01/01:00pm 28.4 22.4 8.7 29 10.9 WSW 30 44 16 24 1006.4 1005.7 0.0
01/12:30pm 27.4 21.6 7.8 29 10.6 W 28 43 15 23 1006.0 1005.3 0.0
01/12:00pm 27.4 21.8 10.2 34 9.7 W 30 39 16 21 1006.0 1005.3 0.0
01/11:30am 28.1 22.5 8.9 30 10.6 WSW 28 33 15 18 1005.8 1005.1 0.0
01/11:00am 27.5 22.9 12.3 39 8.9 WNW 28 43 15 23 1005.9 1005.2 0.0
01/10:30am 26.7 23.5 13.1 43 8.0 NNW 22 30 12 16 1005.3 1004.9 0.0
01/10:00am 26.1 21.8 13.2 44 7.6 NNW 28 37 15 20 1005.8 1005.4 0.0
01/09:30am 25.9 20.8 13.7 47 7.2 NNW 33 44 18 24 1005.9 1005.5 0.0
01/09:00am 25.1 19.3 13.9 49 6.7 NW 37 46 20 25 1006.3 1005.9 -
01/08:30am 24.7 19.3 13.9 51 6.4 NW 35 43 19 23 1006.6 1006.2 -
01/08:14am 24.4 18.6 13.9 52 6.2 NW 37 44 20 24 1006.5 1006.1 -
01/08:00am 24.2 19.3 13.7 52 6.2 WNW 32 43 17 23 1006.3 1005.9 -
01/07:50am 23.2 19.0 13.4 54 5.7 NNW 28 37 15 20 1005.0 1004.6 -
01/07:43am 24.2 17.2 13.7 52 6.2 WNW 43 52 23 28 1006.0 1005.6 -
01/07:30am 23.6 16.0 13.5 53 5.9 N 46 61 25 33 1003.5 1003.0 -
01/07:00am 22.5 15.8 13.3 56 5.4 N 41 52 22 28 1003.6 1003.2 -
01/06:30am 22.3 15.2 13.4 57 5.2 N 43 56 23 30 1003.3 1002.8 -
01/06:00am 22.3 15.2 13.4 57 5.2 N 43 57 23 31 1003.5 1003.0 -
01/05:30am 22.1 15.3 13.2 57 5.2 N 41 52 22 28 1003.5 1003.0 -
01/05:00am 22.1 15.7 13.2 57 5.2 N 39 52 21 28 1003.5 1003.0 -
01/04:30am 22.2 15.5 13.3 57 5.2 N 41 54 22 29 1003.7 1003.3 -
01/04:00am 22.3 15.9 13.1 56 5.3 N 39 50 21 27 1004.0 1003.6 -
01/03:30am 22.5 16.2 12.4 52 5.8 N 37 48 20 26 1004.3 1003.9 -
01/03:00am 23.1 17.1 12.1 50 6.3 N 35 46 19 25 1004.5 1004.1 -
01/02:00am 23.5 17.5 10.9 45 7.1 N 33 44 18 24 1005.0 1004.6 0.0
01/01:30am 23.8 17.6 11.5 46 7.0 N 35 46 19 25 1005.5 1005.1 0.0
01/01:00am 24.0 17.9 11.7 46 7.0 N 35 46 19 25 1005.9 1005.5 0.0
01/12:30am 24.2 18.7 11.9 46 7.1 N 32 44 17 24 1006.5 1006.1 0.0
01/12:00am 24.8 19.6 11.7 44 7.5 N 30 39 16 21 1006.9 1006.5 0.0
 
Date/Time
EDT
Temp
°C
App
Temp
°C
Dew
Point
Rel
Hum
%
Delta-T
°C
Wind Press
QNH
hPa
Press
MSL
hPa
Rain
since 9 am
mm
Dir
 
Spd
km/h
Gust
km/h
Spd
kts
Gust
kts
31/11:30pm 25.4 20.1 11.2 41 8.1 N 30 43 16 23 1007.0 1006.6 0.0
31/11:00pm 26.2 20.9 11.2 39 8.6 N 30 39 16 21 1007.1 1006.7 0.0
31/10:30pm 26.7 20.9 10.8 37 9.0 N 32 44 17 24 1006.9 1006.5 0.0
31/10:00pm 28.0 20.6 9.8 32 10.3 N 39 50 21 27 1006.8 1006.4 0.0
31/09:42pm 28.8 20.1 8.5 28 11.2 N 44 65 24 35 1006.5 1006.1 0.0
31/09:35pm 29.6 19.5 3.5 19 13.3 N 46 52 25 28 1006.4 1006.0 0.0
31/09:30pm 28.8 22.8 -1.3 14 14.1 N 20 24 11 13 1006.2 1005.8 0.0
31/09:00pm 28.5 24.2 -1.6 14 14.0 WNW 11 13 6 7 1005.7 1005.3 0.0
31/08:30pm 29.0 25.0 -2.2 13 14.4 W 9 11 5 6 1005.4 1005.0 0.0
31/08:00pm 31.4 26.2 -2.6 11 15.9 W 15 20 8 11 1005.1 1004.7 0.0
31/07:30pm 32.8 26.8 -2.8 10 16.7 W 19 28 10 15 1004.8 1004.4 0.0
31/07:00pm 33.5 26.9 -3.7 9 17.3 WNW 22 30 12 16 1004.5 1004.1 0.0
31/06:30pm 35.1 28.8 -4.1 8 18.3 WNW 20 26 11 14 1004.4 1004.0 0.0
31/06:00pm 34.9 28.2 -4.2 8 18.2 W 22 32 12 17 1004.5 1004.1 0.0
31/05:30pm 35.1 28.0 -4.1 8 18.3 NW 24 30 13 16 1004.7 1004.3 0.0
31/05:00pm 35.2 28.7 -2.4 9 18.1 N 22 30 12 16 1005.0 1004.6 0.0
31/04:30pm 36.1 28.9 -1.7 9 18.4 NNW 26 39 14 21 1005.3 1004.9 0.0
31/04:00pm 36.1 27.6 -3.3 8 18.8 NNW 32 44 17 24 1005.5 1005.1 0.0
31/03:38pm 37.1 29.1 -2.6 8 19.2 NNW 30 48 16 26 1005.9 1005.5 0.0
31/03:30pm 37.1 29.4 -2.6 8 19.2 NNW 28 39 15 21 1006.0 1005.6 0.0
31/03:00pm 37.9 30.3 -2.0 8 19.7 NW 28 41 15 22 1006.4 1006.0 0.0
31/02:35pm 37.0 29.5 -1.1 9 18.9 NNW 28 57 15 31 1006.9 1006.5 0.0
31/02:30pm 36.5 29.0 -1.4 9 18.6 NNW 28 43 15 23 1007.0 1006.6 0.0
31/02:01pm 36.5 28.2 -1.4 9 18.6 NNW 32 50 17 27 1007.6 1007.2 0.0
31/02:00pm 36.6 28.2 -1.4 9 18.7 NNW 33 50 18 27 1007.6 1007.2 0.0
31/01:52pm 35.0 25.3 -2.6 9 18.0 NNW 39 50 21 27 1007.5 1007.1 0.0
31/01:47pm 35.9 28.0 -1.9 9 18.4 N 30 48 16 26 1007.3 1006.9 0.0
31/01:30pm 36.7 28.8 -1.3 9 18.7 N 30 37 16 20 1008.0 1007.7 0.0
31/01:00pm 34.5 26.0 -1.5 10 17.5 NNW 33 44 18 24 1008.5 1008.2 0.0
31/12:33pm 34.2 26.5 -3.2 9 17.6 N 28 46 15 25 1009.2 1008.8 0.0
31/12:30pm 35.5 27.1 -2.2 9 18.2 N 32 44 17 24 1009.3 1008.9 0.0
31/12:11pm 35.7 27.2 -2.0 9 18.3 N 33 52 18 28 1009.7 1009.3 0.0
31/12:00pm 35.5 26.9 -2.2 9 18.2 N 33 44 18 24 1010.0 1009.6 0.0
31/11:30am 34.7 26.1 -2.8 9 17.8 N 33 48 18 26 1010.6 1010.2 0.0
31/11:00am 33.7 24.8 -2.1 10 17.1 N 35 44 19 24 1011.0 1010.6 0.0
31/10:30am 33.9 25.7 -0.7 11 16.9 N 32 39 17 21 1011.4 1011.0 0.0
31/10:00am 31.7 22.9 -1.2 12 15.7 N 35 43 19 23 1011.7 1011.3 0.0
31/09:30am 30.1 21.7 -2.4 12 15.0 N 32 37 17 20 1011.9 1011.5 0.0
31/09:00am 29.9 22.2 -2.6 12 15.0 N 28 35 15 19 1012.0 1011.6 0.0
31/08:30am 29.0 22.8 -3.2 12 14.6 N 20 28 11 15 1012.1 1011.7 0.0
31/08:00am 26.9 20.2 -3.8 13 13.5 NNE 22 28 12 15 1012.1 1011.7 0.0
31/07:30am 24.6 19.3 -3.7 15 12.2 N 15 20 8 11 1012.0 1011.6 0.0
31/07:00am 21.4 16.4 -3.9 18 10.6 NNE 13 15 7 8 1011.7 1011.3 0.0
31/06:30am 19.4 13.3 -3.5 21 9.5 NNE 19 19 10 10 1011.4 1011.0 0.0
31/06:00am 18.4 13.2 -2.5 24 8.7 NNE 15 19 8 10 1011.1 1010.7 0.0
31/05:30am 17.0 12.6 0.2 32 7.3 SSE 13 15 7 8 1010.7 1010.3 0.0
31/05:00am 13.8 10.1 0.1 39 5.8 SSE 9 11 5 6 1010.6 1010.2 0.0
31/04:30am 13.0 9.6 -0.3 40 5.5 SSE 7 9 4 5 1010.5 1010.1 0.0
31/04:00am 13.3 9.6 -0.3 39 5.7 SSE 9 11 5 6 1010.3 1009.9 0.0
31/03:30am 14.8 11.5 -0.1 36 6.3 SSE 7 9 4 5 1010.4 1010.0 0.0
31/03:00am 15.4 11.8 0.8 37 6.4 SSE 9 11 5 6 1010.9 1010.5 0.0
31/02:30am 14.0 11.6 -0.4 37 6.0 SSE 2 11 1 6 1011.3 1010.9 0.0
31/02:00am 14.5 11.3 -0.8 35 6.4 SSE 6 9 3 5 1011.8 1011.4 0.0
31/01:30am 15.3 12.0 -0.9 33 6.8 SSE 6 9 3 5 1012.1 1011.7 0.0
31/01:00am 15.8 12.3 -1.3 31 7.2 SSE 7 11 4 6 1012.5 1012.2 0.0
31/12:30am 16.4 12.3 -0.3 32 7.2 SSE 11 15 6 8 1012.7 1012.4 0.0
31/12:00am 15.8 13.6 -1.3 31 7.2 CALM 0 0 0 0 1012.5 1012.2 0.0
 
Date/Time
EDT
Temp
°C
App
Temp
°C
Dew
Point
Rel
Hum
%
Delta-T
°C
Wind Press
QNH
hPa
Press
MSL
hPa
Rain
since 9 am
mm
Dir
 
Spd
km/h
Gust
km/h
Spd
kts
Gust
kts
30/11:30pm 16.7 14.5 -1.9 28 7.7 CALM 0 0 0 0 1012.6 1012.3 0.0
30/11:00pm 18.2 15.3 -1.1 27 8.3 SSE 4 7 2 4 1012.6 1012.3 0.0
30/10:30pm 18.8 15.5 -1.1 26 8.6 SSE 6 7 3 4 1012.6 1012.3 0.0
30/10:00pm 19.6 17.0 -1.5 24 9.1 S 2 7 1 4 1012.6 1012.3 0.0
30/09:30pm 20.4 18.1 -2.0 22 9.6 CALM 0 0 0 0 1012.5 1012.2 0.0
30/09:00pm 21.3 18.9 -3.2 19 10.4 CALM 0 0 0 0 1012.2 1011.8 0.0
30/08:59pm 21.4 19.0 -3.1 19 10.4 CALM 0 0 0 0 1012.2 1011.8 0.0
30/08:30pm 26.4 24.3 -0.6 17 12.5 CALM 0 0 0 0 1012.0 1011.6 0.0
30/08:00pm 26.5 24.2 -2.2 15 13.0 CALM 0 0 0 0 1011.9 1011.5 0.0
30/07:30pm 29.6 27.0 -1.7 13 14.6 SW 2 7 1 4 1011.6 1011.2 0.0
30/07:00pm 31.6 28.3 -1.2 12 15.7 SW 6 9 3 5 1011.4 1011.0 0.0
30/06:30pm 32.1 27.0 -2.0 11 16.1 SW 15 24 8 13 1011.3 1010.9 0.0
30/06:00pm 32.9 29.4 -1.4 11 16.5 SW 7 17 4 9 1011.3 1010.9 0.0
30/05:30pm 32.6 27.9 -1.7 11 16.3 SW 13 19 7 10 1011.4 1011.0 0.0
30/05:00pm 33.0 28.7 -1.4 11 16.5 WSW 11 24 6 13 1011.5 1011.1 0.0
30/04:30pm 33.0 27.2 -1.4 11 16.5 W 19 32 10 17 1011.7 1011.3 0.0
30/04:00pm 33.5 28.5 -1.0 11 16.7 W 15 24 8 13 1012.0 1011.6 0.0
30/03:30pm 33.6 27.9 -0.9 11 16.8 SSW 19 24 10 13 1012.3 1011.9 0.0
30/03:00pm 32.4 27.3 -1.8 11 16.3 W 15 24 8 13 1012.7 1012.4 0.0
30/02:30pm 33.0 27.0 -1.4 11 16.5 W 20 37 11 20 1013.2 1012.9 0.0
30/02:00pm 31.6 27.4 -1.2 12 15.7 W 11 24 6 13 1013.6 1013.3 0.0
30/01:30pm 31.5 26.3 -0.2 13 15.4 W 17 26 9 14 1014.2 1013.8 0.0
30/01:00pm 30.6 26.2 0.1 14 14.8 WSW 13 24 7 13 1014.5 1014.1 0.0
30/12:30pm 30.4 24.6 -0.1 14 14.7 W 20 30 11 16 1014.9 1014.5 0.0
30/12:00pm 29.7 25.9 -0.6 14 14.4 WSW 9 17 5 9 1015.2 1014.8 0.0
30/11:30am 30.0 25.3 0.6 15 14.3 W 15 26 8 14 1015.7 1015.3 0.0
30/11:00am 29.1 24.8 0.7 16 13.7 WNW 13 22 7 12 1016.0 1015.6 0.0
30/10:30am 27.5 23.9 0.3 17 12.9 W 9 20 5 11 1016.3 1015.9 0.0
30/10:00am 27.3 24.8 1.7 19 12.5 W 4 15 2 8 1016.5 1016.1 0.0
30/09:30am 24.2 21.9 2.9 25 10.4 W 4 7 2 4 1016.4 1016.0 0.0
30/09:00am 21.8 20.3 3.0 29 9.0 CALM 0 6 0 3 1016.4 1016.0 0.0
30/08:30am 19.7 18.3 3.4 34 7.8 CALM 0 0 0 0 1016.4 1016.0 0.0
30/08:00am 17.4 15.9 3.0 38 6.7 CALM 0 0 0 0 1016.0 1015.6 0.0
30/07:30am 14.2 12.5 1.8 43 5.5 CALM 0 0 0 0 1015.9 1015.5 0.0
30/07:00am 12.1 10.3 1.1 47 4.7 CALM 0 0 0 0 1015.7 1015.3 0.0
30/06:30am 10.0 8.0 0.1 50 4.0 CALM 0 0 0 0 1015.5 1015.1 0.0
30/06:00am 9.2 7.1 -0.7 50 3.9 CALM 0 0 0 0 1015.3 1014.9 0.0
30/05:30am 9.6 7.6 0.0 51 3.9 CALM 0 0 0 0 1015.2 1014.8 0.0
30/05:00am 9.8 7.8 0.2 51 3.9 CALM 0 0 0 0 1015.2 1014.8 0.0
30/04:30am 9.8 7.8 -0.1 50 4.0 CALM 0 6 0 3 1015.1 1014.7 0.0
30/04:00am 10.1 7.3 -0.4 48 4.2 W 4 7 2 4 1014.9 1014.5 0.0
30/03:30am 10.1 8.0 -1.0 46 4.4 CALM 0 0 0 0 1015.0 1014.6 0.0
30/03:00am 11.6 9.6 0.1 45 4.8 CALM 0 0 0 0 1015.1 1014.7 0.0
30/02:30am 12.2 10.2 -0.3 42 5.2 CALM 0 4 0 2 1015.1 1014.7 0.0
30/02:00am 12.5 9.0 1.2 46 4.8 W 9 11 5 6 1015.2 1014.8 0.0
30/01:30am 13.3 10.4 1.6 45 5.1 W 6 7 3 4 1015.5 1015.1 0.0
30/01:00am 13.5 10.8 0.5 41 5.5 W 4 7 2 4 1015.9 1015.5 0.0
30/12:30am 15.2 12.1 -0.1 35 6.5 W 6 6 3 3 1016.1 1015.7 0.0
30/12:00am 17.0 14.3 0.6 33 7.2 W 4 6 2 3 1016.2 1015.8 0.0
 
Date/Time
EDT
Temp
°C
App
Temp
°C
Dew
Point
Rel
Hum
%
Delta-T
°C
Wind Press
QNH
hPa
Press
MSL
hPa
Rain
since 9 am
mm
Dir
 
Spd
km/h
Gust
km/h
Spd
kts
Gust
kts
29/11:30pm 17.1 13.9 0.7 33 7.2 W 7 9 4 5 1016.3 1015.9 0.0

Other Formats:

Comma delimited format used in spreadsheet applications
http://www.bom.gov.au/fwo/IDN60801/IDN60801.95708.axf

JavaScript Object Notation format (JSON) in row-major order
http://www.bom.gov.au/fwo/IDN60801/IDN60801.95708.json